Time;durP1;ratioP1;P1;durP2;ratioP2;P2;SDS_P1;SDS_P2;PMS_P1;PMS_P2;Temp;Humidity;BMP_temperature;BMP_pressure;BME280_temperature;BME280_humidity;BME280_pressure;Samples;Min_cycle;Max_cycle;Signal;HPM_P1;HPM_P2
2023/12/12 00:01:50;;;;;;;4.28;3.00;;;;;;;;;;4954567;28;20390;-78
2023/12/12 00:04:19;;;;;;;4.35;2.42;;;;;;;;;;4955353;28;20054;-78
2023/12/12 00:06:46;;;;;;;5.00;2.97;;;;;;;;;;4954808;28;20432;-78
2023/12/12 00:09:15;;;;;;;7.32;3.60;;;;;;;;;;4970572;28;20065;-78
2023/12/12 00:11:42;;;;;;;2.95;2.08;;;;;;;;;;4975559;28;20051;-78
2023/12/12 00:14:12;;;;;;;10.00;3.90;;;;;;;;;;4975144;28;20062;-78
2023/12/12 00:16:41;;;;;;;6.05;3.20;;;;;;;;;;4958612;28;20051;-78
2023/12/12 00:19:09;;;;;;;6.88;2.90;;;;;;;;;;4974830;28;20051;-78
2023/12/12 00:21:36;;;;;;;4.03;2.38;;;;;;;;;;4958134;28;20557;-78
2023/12/12 00:24:03;;;;;;;5.68;3.38;;;;;;;;;;4953520;28;20055;-78
2023/12/12 00:26:35;;;;;;;5.68;2.50;;;;;;;;;;4971946;28;20047;-78
2023/12/12 00:29:04;;;;;;;5.03;3.08;;;;;;;;;;4941839;28;20597;-78
2023/12/12 00:31:34;;;;;;;4.63;3.08;;;;;;;;;;4973247;28;20051;-78
2023/12/12 00:34:03;;;;;;;4.63;2.33;;;;;;;;;;4975678;28;20398;-78
2023/12/12 00:36:31;;;;;;;5.60;3.10;;;;;;;;;;4958241;28;20051;-78
2023/12/12 00:38:58;;;;;;;5.25;3.72;;;;;;;;;;4961776;28;20050;-78
2023/12/12 00:41:32;;;;;;;7.25;2.97;;;;;;;;;;4957812;28;20054;-78
2023/12/12 00:44:01;;;;;;;4.68;2.95;;;;;;;;;;4951709;28;20119;-78
2023/12/12 00:46:34;;;;;;;8.27;3.80;;;;;;;;;;4958490;28;20060;-78
2023/12/12 00:49:01;;;;;;;8.93;3.40;;;;;;;;;;4956635;28;20057;-78
2023/12/12 00:51:28;;;;;;;6.38;2.67;;;;;;;;;;4974088;28;20054;-78
2023/12/12 00:53:55;;;;;;;6.90;2.70;;;;;;;;;;4958419;28;20054;-78
2023/12/12 00:56:22;;;;;;;6.93;2.60;;;;;;;;;;4974253;28;20046;-78
2023/12/12 00:58:49;;;;;;;7.25;3.15;;;;;;;;;;4972293;28;20050;-78
2023/12/12 01:01:20;;;;;;;8.93;3.22;;;;;;;;;;4972609;28;20073;-78
2023/12/12 01:03:50;;;;;;;5.88;2.58;;;;;;;;;;4981321;28;20073;-78
2023/12/12 01:06:23;;;;;;;9.48;3.63;;;;;;;;;;4958010;28;20051;-78
2023/12/12 01:08:53;;;;;;;4.90;2.17;;;;;;;;;;4972801;28;20050;-78
2023/12/12 01:11:20;;;;;;;4.45;2.50;;;;;;;;;;4957180;28;20070;-78
2023/12/12 01:13:48;;;;;;;7.13;3.22;;;;;;;;;;4956894;28;20051;-78
2023/12/12 01:16:15;;;;;;;6.00;2.95;;;;;;;;;;4957614;28;20058;-78
2023/12/12 01:18:46;;;;;;;10.10;3.30;;;;;;;;;;4956697;28;20046;-78
2023/12/12 01:21:18;;;;;;;6.82;3.95;;;;;;;;;;4956056;28;20428;-78
2023/12/12 01:23:49;;;;;;;5.18;4.43;;;;;;;;;;4985585;28;20038;-78
2023/12/12 01:26:20;;;;;;;4.22;2.33;;;;;;;;;;4953359;28;20051;-78
2023/12/12 01:28:47;;;;;;;5.88;2.97;;;;;;;;;;4957533;28;20050;-78
2023/12/12 01:31:15;;;;;;;12.27;3.35;;;;;;;;;;4958025;28;20057;-78
2023/12/12 01:33:42;;;;;;;3.70;2.95;;;;;;;;;;4956764;28;20061;-78
2023/12/12 01:36:12;;;;;;;4.32;2.63;;;;;;;;;;4957118;28;20046;-78
2023/12/12 01:38:45;;;;;;;3.88;1.92;;;;;;;;;;4958195;28;20057;-78
2023/12/12 01:41:12;;;;;;;5.57;3.00;;;;;;;;;;4956296;28;20046;-78
2023/12/12 01:43:41;;;;;;;6.05;3.55;;;;;;;;;;4956500;28;20042;-78
2023/12/12 01:46:09;;;;;;;6.90;3.95;;;;;;;;;;4956897;28;20053;-78
2023/12/12 01:48:39;;;;;;;6.57;3.15;;;;;;;;;;4972148;28;20421;-78
2023/12/12 01:51:07;;;;;;;4.88;2.63;;;;;;;;;;4961466;28;20433;-78
2023/12/12 01:53:40;;;;;;;6.05;3.20;;;;;;;;;;4955583;28;20043;-79
2023/12/12 01:56:08;;;;;;;5.70;3.65;;;;;;;;;;4972707;28;20062;-79
2023/12/12 01:58:37;;;;;;;6.53;2.85;;;;;;;;;;4988199;28;20047;-79
2023/12/12 02:01:05;;;;;;;4.03;3.20;;;;;;;;;;4971432;28;20043;-79
2023/12/12 02:03:35;;;;;;;5.35;2.85;;;;;;;;;;4972696;28;20061;-79
2023/12/12 02:06:06;;;;;;;9.10;3.17;;;;;;;;;;4986528;28;20051;-79
2023/12/12 02:08:33;;;;;;;7.45;3.28;;;;;;;;;;4955348;28;20061;-79
2023/12/12 02:11:02;;;;;;;4.32;2.67;;;;;;;;;;4992772;28;20051;-80
2023/12/12 02:13:32;;;;;;;7.50;2.28;;;;;;;;;;4971554;28;20440;-80
2023/12/12 02:16:01;;;;;;;2.88;2.35;;;;;;;;;;4988239;28;20038;-79
2023/12/12 02:18:28;;;;;;;10.27;3.38;;;;;;;;;;4988579;28;20054;-79
2023/12/12 02:21:00;;;;;;;3.38;3.00;;;;;;;;;;4970356;28;20050;-79
2023/12/12 02:23:29;;;;;;;8.57;2.53;;;;;;;;;;4971302;28;20054;-79
2023/12/12 02:25:57;;;;;;;6.88;2.65;;;;;;;;;;4975414;28;20065;-79
2023/12/12 02:28:24;;;;;;;2.92;2.45;;;;;;;;;;4968913;29;20054;-79
2023/12/12 02:30:51;;;;;;;4.07;2.85;;;;;;;;;;4967931;28;20069;-79
2023/12/12 02:33:18;;;;;;;3.25;2.45;;;;;;;;;;4988274;28;20045;-79
2023/12/12 02:35:48;;;;;;;5.50;2.95;;;;;;;;;;4955603;28;20058;-79
2023/12/12 02:38:15;;;;;;;5.65;2.95;;;;;;;;;;4967425;29;20070;-79
2023/12/12 02:40:46;;;;;;;6.60;3.13;;;;;;;;;;4983053;28;20092;-79
2023/12/12 02:43:16;;;;;;;10.25;4.78;;;;;;;;;;4939482;28;20043;-79
2023/12/12 02:45:43;;;;;;;7.25;3.05;;;;;;;;;;4954385;28;20055;-79
2023/12/12 02:48:13;;;;;;;5.78;3.40;;;;;;;;;;4971428;28;20049;-79
2023/12/12 02:50:40;;;;;;;8.75;3.42;;;;;;;;;;4971063;28;20127;-79
2023/12/12 02:53:07;;;;;;;7.53;2.97;;;;;;;;;;4972573;28;20046;-79
2023/12/12 02:55:34;;;;;;;7.63;3.83;;;;;;;;;;4955059;28;20054;-79
2023/12/12 02:58:03;;;;;;;5.65;3.35;;;;;;;;;;4970248;28;20046;-79
2023/12/12 03:00:30;;;;;;;9.70;3.72;;;;;;;;;;4987320;28;20051;-79
2023/12/12 03:02:57;;;;;;;4.95;2.90;;;;;;;;;;4969998;28;20066;-79
2023/12/12 03:05:24;;;;;;;4.13;3.00;;;;;;;;;;4987503;28;20054;-79
2023/12/12 03:07:52;;;;;;;7.72;3.00;;;;;;;;;;4954074;28;20456;-79
2023/12/12 03:10:20;;;;;;;4.80;2.83;;;;;;;;;;4971003;28;20050;-79
2023/12/12 03:12:53;;;;;;;3.33;2.70;;;;;;;;;;4972080;28;20061;-79
2023/12/12 03:15:24;;;;;;;4.78;2.75;;;;;;;;;;4989873;28;20061;-79
2023/12/12 03:17:51;;;;;;;5.57;3.50;;;;;;;;;;4972180;28;20063;-79
2023/12/12 03:20:18;;;;;;;4.05;2.33;;;;;;;;;;4988127;28;20059;-79
2023/12/12 03:22:45;;;;;;;13.30;3.05;;;;;;;;;;4975092;28;20054;-79
2023/12/12 03:25:15;;;;;;;4.50;2.95;;;;;;;;;;4998424;28;20049;-80
2023/12/12 03:27:42;;;;;;;5.85;3.25;;;;;;;;;;4974383;28;20046;-79
2023/12/12 03:30:11;;;;;;;6.43;3.60;;;;;;;;;;4974572;28;20057;-80
2023/12/12 03:32:41;;;;;;;3.50;2.55;;;;;;;;;;4971121;28;20063;-79
2023/12/12 03:35:13;;;;;;;9.68;2.78;;;;;;;;;;4946270;28;20046;-79
2023/12/12 03:37:41;;;;;;;6.90;4.10;;;;;;;;;;4986711;28;20054;-80
2023/12/12 03:40:10;;;;;;;6.95;3.10;;;;;;;;;;4989235;28;20059;-80
2023/12/12 03:42:40;;;;;;;7.88;3.85;;;;;;;;;;4968718;28;20070;-79
2023/12/12 03:45:08;;;;;;;4.72;2.42;;;;;;;;;;4957350;28;20038;-78
2023/12/12 03:47:38;;;;;;;5.25;3.00;;;;;;;;;;4972802;28;20420;-78
2023/12/12 03:50:09;;;;;;;3.97;2.65;;;;;;;;;;4973090;28;20401;-78
2023/12/12 03:52:39;;;;;;;3.58;3.10;;;;;;;;;;4954259;28;20051;-78
2023/12/12 03:55:07;;;;;;;12.13;3.90;;;;;;;;;;4961709;28;20050;-78
2023/12/12 03:57:35;;;;;;;5.50;3.15;;;;;;;;;;4954583;28;20057;-78
2023/12/12 04:00:07;;;;;;;5.22;3.00;;;;;;;;;;4971088;28;20042;-78
2023/12/12 04:02:39;;;;;;;3.78;2.72;;;;;;;;;;4970628;28;20497;-78
2023/12/12 04:05:10;;;;;;;7.10;2.88;;;;;;;;;;4955201;28;20043;-78
2023/12/12 04:07:39;;;;;;;5.80;3.25;;;;;;;;;;4970472;28;20051;-78
2023/12/12 04:10:08;;;;;;;5.28;2.97;;;;;;;;;;4938517;28;20055;-78
2023/12/12 04:12:36;;;;;;;9.50;4.38;;;;;;;;;;4953932;28;20050;-78
2023/12/12 04:15:06;;;;;;;10.18;3.30;;;;;;;;;;4970856;28;20532;-78
2023/12/12 04:17:36;;;;;;;5.78;3.08;;;;;;;;;;4955704;28;20050;-78
2023/12/12 04:20:05;;;;;;;5.15;3.67;;;;;;;;;;4953714;28;20051;-78
2023/12/12 04:22:36;;;;;;;3.72;2.47;;;;;;;;;;4973221;28;20047;-79
2023/12/12 04:25:03;;;;;;;5.32;2.90;;;;;;;;;;4954414;28;20516;-78
2023/12/12 04:27:33;;;;;;;6.85;2.05;;;;;;;;;;4975789;28;20051;-78
2023/12/12 04:30:00;;;;;;;5.18;2.38;;;;;;;;;;4969922;28;20054;-78
2023/12/12 04:32:30;;;;;;;4.28;2.55;;;;;;;;;;4953193;28;20061;-78
2023/12/12 04:35:02;;;;;;;4.38;2.33;;;;;;;;;;4954807;28;20051;-78
2023/12/12 04:37:29;;;;;;;7.93;3.83;;;;;;;;;;4971977;28;20425;-78
2023/12/12 04:40:01;;;;;;;7.78;2.60;;;;;;;;;;4968607;28;20054;-78
2023/12/12 04:42:31;;;;;;;2.97;2.13;;;;;;;;;;4972404;28;20054;-78
2023/12/12 04:44:58;;;;;;;6.40;2.53;;;;;;;;;;4954033;28;20055;-78
2023/12/12 04:47:25;;;;;;;4.28;2.65;;;;;;;;;;4970984;28;20497;-78
2023/12/12 04:49:53;;;;;;;9.75;2.85;;;;;;;;;;4953819;28;20055;-78
2023/12/12 04:52:22;;;;;;;4.63;3.25;;;;;;;;;;4948900;28;20516;-78
2023/12/12 04:54:49;;;;;;;8.30;3.65;;;;;;;;;;4955423;28;21441;-79
2023/12/12 04:57:18;;;;;;;6.47;3.00;;;;;;;;;;4961530;28;20413;-78
2023/12/12 04:59:47;;;;;;;4.63;3.50;;;;;;;;;;4973284;28;20077;-78
2023/12/12 05:02:14;;;;;;;4.20;2.97;;;;;;;;;;4940815;28;20055;-78
2023/12/12 05:04:44;;;;;;;12.32;2.97;;;;;;;;;;4979978;28;20047;-78
2023/12/12 05:07:15;;;;;;;6.45;4.38;;;;;;;;;;4966075;28;20054;-78
2023/12/12 05:09:42;;;;;;;4.82;3.88;;;;;;;;;;4975523;28;20378;-78
2023/12/12 05:12:09;;;;;;;4.32;3.15;;;;;;;;;;4956811;28;20058;-78
2023/12/12 05:14:38;;;;;;;4.80;2.35;;;;;;;;;;4957291;28;20039;-78
2023/12/12 05:17:05;;;;;;;5.85;3.17;;;;;;;;;;4958100;28;20058;-78
2023/12/12 05:19:35;;;;;;;7.85;3.53;;;;;;;;;;4957677;28;20058;-78
2023/12/12 05:22:03;;;;;;;13.45;2.58;;;;;;;;;;4957416;28;20054;-78
2023/12/12 05:24:30;;;;;;;9.40;3.78;;;;;;;;;;4957206;28;20059;-78
2023/12/12 05:27:00;;;;;;;8.63;3.38;;;;;;;;;;4961506;28;20051;-78
2023/12/12 05:29:27;;;;;;;9.48;3.63;;;;;;;;;;4941086;28;20062;-77
2023/12/12 05:31:55;;;;;;;4.50;3.13;;;;;;;;;;4956738;28;20058;-78
2023/12/12 05:34:25;;;;;;;4.40;2.53;;;;;;;;;;4958548;28;20539;-78
2023/12/12 05:36:52;;;;;;;7.63;4.10;;;;;;;;;;4956983;28;20059;-78
2023/12/12 05:39:19;;;;;;;7.43;3.53;;;;;;;;;;4957259;28;20066;-78
2023/12/12 05:41:48;;;;;;;7.75;3.58;;;;;;;;;;4972239;28;20397;-78
2023/12/12 05:44:17;;;;;;;8.10;4.32;;;;;;;;;;4942056;28;20046;-78
2023/12/12 05:46:45;;;;;;;8.55;3.33;;;;;;;;;;4957692;28;20600;-78
2023/12/12 05:49:15;;;;;;;6.50;3.35;;;;;;;;;;4959756;28;20057;-78
2023/12/12 05:51:45;;;;;;;7.50;3.55;;;;;;;;;;4974384;28;20054;-78
2023/12/12 05:54:14;;;;;;;6.65;2.92;;;;;;;;;;4939658;28;20630;-78
2023/12/12 05:56:43;;;;;;;8.63;4.18;;;;;;;;;;4971606;28;20050;-78
2023/12/12 05:59:14;;;;;;;7.72;3.22;;;;;;;;;;4974373;28;20419;-78
2023/12/12 06:01:44;;;;;;;5.18;3.38;;;;;;;;;;4954978;28;20062;-78
2023/12/12 06:04:12;;;;;;;11.95;3.50;;;;;;;;;;4974070;28;20558;-78
2023/12/12 06:06:43;;;;;;;4.10;3.47;;;;;;;;;;4971055;28;20049;-78
2023/12/12 06:09:11;;;;;;;6.93;3.22;;;;;;;;;;4958111;28;20547;-78
2023/12/12 06:11:39;;;;;;;9.55;3.35;;;;;;;;;;4969491;28;20543;-78
2023/12/12 06:14:06;;;;;;;7.72;2.65;;;;;;;;;;4950893;28;20073;-78
2023/12/12 06:16:37;;;;;;;5.30;3.20;;;;;;;;;;4980641;28;20049;-78
2023/12/12 06:19:07;;;;;;;9.50;3.75;;;;;;;;;;4994494;28;20050;-79
2023/12/12 06:21:34;;;;;;;5.15;2.95;;;;;;;;;;4965779;28;20046;-78
2023/12/12 06:24:04;;;;;;;9.73;3.80;;;;;;;;;;4954445;28;20050;-78
2023/12/12 06:26:31;;;;;;;6.63;3.55;;;;;;;;;;4974306;28;20054;-78
2023/12/12 06:28:59;;;;;;;4.03;3.05;;;;;;;;;;4957395;28;20265;-78
2023/12/12 06:31:26;;;;;;;12.57;4.65;;;;;;;;;;4958635;28;20057;-78
2023/12/12 06:33:53;;;;;;;5.05;3.58;;;;;;;;;;4982309;28;20050;-78
2023/12/12 06:36:20;;;;;;;6.38;2.95;;;;;;;;;;4963675;28;20058;-78
2023/12/12 06:38:50;;;;;;;7.40;4.82;;;;;;;;;;4964211;28;20055;-78
2023/12/12 06:41:18;;;;;;;9.20;4.40;;;;;;;;;;4989472;28;20054;-78
2023/12/12 06:43:46;;;;;;;7.32;3.58;;;;;;;;;;4979284;28;20046;-78
2023/12/12 06:46:13;;;;;;;4.82;3.58;;;;;;;;;;4959272;28;20047;-78
2023/12/12 06:48:40;;;;;;;6.13;3.35;;;;;;;;;;4961257;28;20554;-78
2023/12/12 06:51:09;;;;;;;10.43;5.15;;;;;;;;;;4970209;28;20046;-78
2023/12/12 06:53:41;;;;;;;6.22;3.60;;;;;;;;;;4979138;28;20058;-78
2023/12/12 06:56:10;;;;;;;7.20;4.30;;;;;;;;;;4971870;28;20051;-78
2023/12/12 06:58:41;;;;;;;5.32;3.55;;;;;;;;;;4962569;28;20070;-78
2023/12/12 07:01:10;;;;;;;5.25;3.38;;;;;;;;;;4978120;28;20047;-78
2023/12/12 07:03:38;;;;;;;7.70;4.10;;;;;;;;;;4966084;28;20050;-78
2023/12/12 07:06:08;;;;;;;6.88;3.55;;;;;;;;;;4965331;28;20057;-78
2023/12/12 07:08:38;;;;;;;3.55;2.92;;;;;;;;;;4964928;28;20050;-78
2023/12/12 07:11:05;;;;;;;4.97;3.58;;;;;;;;;;4955030;28;20682;-78
2023/12/12 07:13:32;;;;;;;6.78;4.10;;;;;;;;;;4960191;28;20050;-78
2023/12/12 07:16:01;;;;;;;6.57;4.32;;;;;;;;;;4961119;28;20046;-78
2023/12/12 07:18:30;;;;;;;6.80;3.30;;;;;;;;;;4980509;28;20065;-78
2023/12/12 07:21:03;;;;;;;7.75;4.47;;;;;;;;;;4963175;28;20066;-78
2023/12/12 07:23:35;;;;;;;8.25;4.28;;;;;;;;;;4971354;28;20054;-78
2023/12/12 07:26:04;;;;;;;4.93;3.53;;;;;;;;;;4947158;28;20783;-78
2023/12/12 07:28:36;;;;;;;5.13;3.50;;;;;;;;;;4979570;28;20054;-78
2023/12/12 07:31:09;;;;;;;10.00;3.33;;;;;;;;;;4955167;28;20592;-78
2023/12/12 07:33:37;;;;;;;6.30;3.47;;;;;;;;;;4970825;28;20057;-78
2023/12/12 07:36:04;;;;;;;5.70;3.53;;;;;;;;;;4955000;28;20062;-78
2023/12/12 07:38:34;;;;;;;7.28;5.15;;;;;;;;;;4939474;28;20062;-78
2023/12/12 07:41:01;;;;;;;9.32;4.22;;;;;;;;;;4990524;28;20054;-78
2023/12/12 07:43:31;;;;;;;11.55;4.80;;;;;;;;;;4972603;28;20386;-78
2023/12/12 07:45:58;;;;;;;8.65;5.57;;;;;;;;;;4940651;28;20051;-78
2023/12/12 07:48:29;;;;;;;7.13;5.45;;;;;;;;;;4981934;28;20042;-78
2023/12/12 07:51:01;;;;;;;9.10;5.47;;;;;;;;;;5025222;22;20049;-84
2023/12/12 07:53:28;;;;;;;8.23;6.25;;;;;;;;;;5024763;28;20045;-84
2023/12/12 07:55:56;;;;;;;9.32;4.90;;;;;;;;;;5022742;28;20499;-84
2023/12/12 07:58:23;;;;;;;9.15;4.07;;;;;;;;;;5036789;28;20048;-84
2023/12/12 08:00:52;;;;;;;5.13;4.07;;;;;;;;;;5050628;28;20415;-84
2023/12/12 08:03:22;;;;;;;6.75;3.92;;;;;;;;;;5015806;28;20065;-84
2023/12/12 08:05:53;;;;;;;8.30;4.20;;;;;;;;;;5046796;28;20499;-83
2023/12/12 08:08:22;;;;;;;6.75;3.50;;;;;;;;;;5025429;28;20056;-84
2023/12/12 08:10:52;;;;;;;6.82;3.10;;;;;;;;;;5045267;28;20057;-84
2023/12/12 08:13:19;;;;;;;6.78;3.65;;;;;;;;;;5029202;28;20526;-84
2023/12/12 08:15:48;;;;;;;9.88;3.75;;;;;;;;;;5049028;28;20049;-84
2023/12/12 08:18:18;;;;;;;12.23;4.55;;;;;;;;;;5041679;28;20049;-84
2023/12/12 08:20:45;;;;;;;5.38;3.53;;;;;;;;;;5031934;28;20053;-84
2023/12/12 08:23:16;;;;;;;4.43;3.67;;;;;;;;;;5010782;28;20427;-84
2023/12/12 08:25:47;;;;;;;9.27;4.97;;;;;;;;;;5033444;28;20480;-84
2023/12/12 08:28:16;;;;;;;8.02;5.63;;;;;;;;;;5030630;28;20412;-84
2023/12/12 08:30:46;;;;;;;11.07;5.25;;;;;;;;;;5029477;28;20053;-84
2023/12/12 08:33:13;;;;;;;7.68;4.93;;;;;;;;;;5020016;28;20058;-84
2023/12/12 08:35:43;;;;;;;8.20;5.30;;;;;;;;;;5046605;28;20037;-83
2023/12/12 08:38:12;;;;;;;7.60;5.13;;;;;;;;;;5020465;28;20053;-84
2023/12/12 08:40:41;;;;;;;7.90;5.30;;;;;;;;;;5043193;28;20041;-84
2023/12/12 08:43:13;;;;;;;6.35;5.32;;;;;;;;;;5032072;28;20048;-83
2023/12/12 08:45:40;;;;;;;11.38;5.97;;;;;;;;;;5023721;28;20057;-83
2023/12/12 08:48:10;;;;;;;13.57;8.10;;;;;;;;;;5037561;28;20053;-83
2023/12/12 08:50:40;;;;;;;6.78;4.80;;;;;;;;;;5023752;28;20055;-83
2023/12/12 08:53:07;;;;;;;10.10;5.97;;;;;;;;;;5044916;28;20053;-83
2023/12/12 08:55:37;;;;;;;11.38;5.75;;;;;;;;;;5040160;28;20052;-83
2023/12/12 08:58:08;;;;;;;11.93;5.30;;;;;;;;;;5046296;28;20570;-84
2023/12/12 09:00:38;;;;;;;10.63;5.63;;;;;;;;;;5056857;28;20037;-84
2023/12/12 09:03:08;;;;;;;12.23;4.32;;;;;;;;;;5021434;28;20045;-84
2023/12/12 09:05:38;;;;;;;10.18;4.68;;;;;;;;;;5037460;28;20116;-84
2023/12/12 09:08:05;;;;;;;9.88;5.30;;;;;;;;;;5037916;28;20048;-83
2023/12/12 09:10:32;;;;;;;12.32;6.97;;;;;;;;;;5036471;28;20052;-83
2023/12/12 09:12:59;;;;;;;8.45;5.97;;;;;;;;;;5020907;28;20060;-83
2023/12/12 09:15:31;;;;;;;11.88;5.80;;;;;;;;;;5054533;28;20049;-83
2023/12/12 09:17:59;;;;;;;13.88;5.25;;;;;;;;;;5037425;28;20061;-83
2023/12/12 09:20:26;;;;;;;8.57;4.75;;;;;;;;;;5028160;28;20056;-83
2023/12/12 09:22:53;;;;;;;6.15;4.55;;;;;;;;;;5054306;28;20426;-83
2023/12/12 09:25:21;;;;;;;8.10;5.70;;;;;;;;;;5036941;28;20049;-83
2023/12/12 09:27:48;;;;;;;8.00;5.40;;;;;;;;;;5026556;28;20041;-83
2023/12/12 09:30:15;;;;;;;6.97;4.45;;;;;;;;;;5029114;28;20506;-83
2023/12/12 09:32:44;;;;;;;6.88;4.72;;;;;;;;;;5026252;28;20041;-83
2023/12/12 09:35:11;;;;;;;6.40;4.40;;;;;;;;;;5071875;28;20049;-83
2023/12/12 09:37:39;;;;;;;9.43;4.68;;;;;;;;;;5020811;28;20079;-83
2023/12/12 09:40:12;;;;;;;8.13;4.32;;;;;;;;;;5036586;28;20056;-83
2023/12/12 09:42:40;;;;;;;9.25;5.85;;;;;;;;;;5036446;28;20044;-83
2023/12/12 09:45:14;;;;;;;8.70;6.00;;;;;;;;;;5018837;28;20060;-83
2023/12/12 09:47:44;;;;;;;9.27;7.68;;;;;;;;;;5019539;28;20045;-83
2023/12/12 09:50:12;;;;;;;8.57;5.55;;;;;;;;;;5035073;28;20052;-83
2023/12/12 09:52:42;;;;;;;6.55;4.35;;;;;;;;;;5058110;28;20495;-83
2023/12/12 09:55:10;;;;;;;13.13;5.07;;;;;;;;;;5020605;28;20057;-83
2023/12/12 09:57:37;;;;;;;5.78;4.07;;;;;;;;;;5034691;28;20087;-83
2023/12/12 10:00:08;;;;;;;10.80;8.57;;;;;;;;;;5038788;28;20055;-83
2023/12/12 10:02:38;;;;;;;6.13;5.50;;;;;;;;;;5042610;28;20072;-84
2023/12/12 10:05:09;;;;;;;9.48;5.47;;;;;;;;;;5060493;28;20057;-83
2023/12/12 10:07:41;;;;;;;10.02;5.43;;;;;;;;;;5047680;28;20044;-83
2023/12/12 10:10:12;;;;;;;13.52;5.65;;;;;;;;;;5026063;28;20918;-83
2023/12/12 10:12:41;;;;;;;9.23;5.55;;;;;;;;;;5019948;28;20063;-83
2023/12/12 10:15:28;;;;;;;6.25;4.95;;;;;;;;;;5019654;28;20060;-83
2023/12/12 10:17:57;;;;;;;5.82;4.22;;;;;;;;;;5057939;28;20044;-83
2023/12/12 10:20:26;;;;;;;6.55;4.25;;;;;;;;;;5051223;28;20056;-83
2023/12/12 10:22:55;;;;;;;7.55;3.78;;;;;;;;;;5040430;28;20060;-83
2023/12/12 10:25:25;;;;;;;4.85;3.60;;;;;;;;;;5039670;28;20048;-83
2023/12/12 10:27:55;;;;;;;6.55;4.55;;;;;;;;;;5018762;28;20065;-83
2023/12/12 10:30:23;;;;;;;8.65;3.67;;;;;;;;;;5045495;28;20051;-83
2023/12/12 10:32:52;;;;;;;8.82;4.10;;;;;;;;;;5017561;28;20056;-83
2023/12/12 10:35:21;;;;;;;11.43;4.57;;;;;;;;;;5035602;28;20053;-83
2023/12/12 10:37:53;;;;;;;5.03;4.55;;;;;;;;;;5006875;28;20044;-83
2023/12/12 10:40:22;;;;;;;6.85;4.00;;;;;;;;;;5050567;28;20052;-83
2023/12/12 10:42:50;;;;;;;5.63;4.40;;;;;;;;;;5056242;28;20060;-83
2023/12/12 10:45:20;;;;;;;5.90;4.45;;;;;;;;;;5019855;28;20060;-83
2023/12/12 10:47:49;;;;;;;6.70;4.90;;;;;;;;;;5042073;28;20044;-83
2023/12/12 10:50:19;;;;;;;5.18;4.20;;;;;;;;;;5043873;28;20052;-83
2023/12/12 10:52:50;;;;;;;6.03;4.22;;;;;;;;;;5020401;28;20052;-84
2023/12/12 10:55:22;;;;;;;7.93;4.88;;;;;;;;;;5054695;28;20050;-84
2023/12/12 10:57:49;;;;;;;8.05;4.15;;;;;;;;;;5051291;28;20053;-84
2023/12/12 11:00:20;;;;;;;8.55;4.55;;;;;;;;;;5075838;28;20039;-83
2023/12/12 11:02:53;;;;;;;5.68;3.42;;;;;;;;;;5033134;28;20075;-83
2023/12/12 11:05:21;;;;;;;4.38;3.30;;;;;;;;;;5039613;28;20064;-83
2023/12/12 11:07:52;;;;;;;8.90;5.18;;;;;;;;;;5031939;28;20136;-83
2023/12/12 11:10:22;;;;;;;7.35;3.55;;;;;;;;;;5033635;28;20415;-84
2023/12/12 11:12:51;;;;;;;4.53;3.22;;;;;;;;;;5063015;28;20049;-84
2023/12/12 11:15:20;;;;;;;5.97;3.15;;;;;;;;;;5035007;28;20371;-83
2023/12/12 11:17:52;;;;;;;5.78;3.08;;;;;;;;;;5059519;28;20052;-84
2023/12/12 11:20:21;;;;;;;6.25;4.22;;;;;;;;;;5043113;28;20750;-83
2023/12/12 11:22:52;;;;;;;6.15;3.80;;;;;;;;;;5060302;28;20399;-83
2023/12/12 11:25:22;;;;;;;8.68;6.25;;;;;;;;;;5021868;28;20048;-83
2023/12/12 11:27:51;;;;;;;4.10;3.38;;;;;;;;;;5016273;28;21090;-83
2023/12/12 11:30:21;;;;;;;7.47;3.63;;;;;;;;;;5051773;28;20055;-83
2023/12/12 11:32:55;;;;;;;6.05;3.40;;;;;;;;;;5020588;28;20055;-83
2023/12/12 11:35:28;;;;;;;6.22;3.55;;;;;;;;;;5034733;28;20077;-83
2023/12/12 11:37:59;;;;;;;4.68;3.15;;;;;;;;;;5034427;28;20056;-83
2023/12/12 11:40:28;;;;;;;3.55;3.25;;;;;;;;;;5023590;28;20049;-83
2023/12/12 11:42:57;;;;;;;5.97;2.85;;;;;;;;;;5036859;28;20062;-83
2023/12/12 11:45:32;;;;;;;5.93;3.53;;;;;;;;;;5038100;28;20041;-83
2023/12/12 11:48:02;;;;;;;4.82;3.92;;;;;;;;;;5057071;28;20490;-83
2023/12/12 11:50:35;;;;;;;7.30;3.55;;;;;;;;;;5034201;28;20045;-83
2023/12/12 11:53:03;;;;;;;8.43;3.10;;;;;;;;;;5027103;28;20049;-83
2023/12/12 11:55:42;;;;;;;6.00;3.90;;;;;;;;;;5034957;28;20037;-83
2023/12/12 11:58:14;;;;;;;3.83;3.38;;;;;;;;;;5039813;28;20052;-83
2023/12/12 12:00:43;;;;;;;6.40;4.43;;;;;;;;;;5020179;28;20052;-83
2023/12/12 12:03:10;;;;;;;5.70;3.38;;;;;;;;;;5022609;28;20068;-84
2023/12/12 12:05:37;;;;;;;4.35;3.28;;;;;;;;;;5026902;28;20040;-83
2023/12/12 12:08:05;;;;;;;10.60;3.17;;;;;;;;;;5034256;28;20624;-83
2023/12/12 12:10:34;;;;;;;5.30;3.80;;;;;;;;;;5033839;28;20056;-83
2023/12/12 12:13:01;;;;;;;4.40;2.90;;;;;;;;;;5022253;28;20037;-83
2023/12/12 12:15:28;;;;;;;6.15;3.38;;;;;;;;;;5045990;28;20057;-83
2023/12/12 12:17:56;;;;;;;7.18;3.80;;;;;;;;;;5033193;28;20674;-83
2023/12/12 12:20:24;;;;;;;5.30;3.50;;;;;;;;;;5025992;28;20052;-83
2023/12/12 12:22:51;;;;;;;4.97;3.35;;;;;;;;;;5024966;28;20045;-83
2023/12/12 12:25:22;;;;;;;6.60;4.65;;;;;;;;;;5062937;28;20047;-83
2023/12/12 12:27:52;;;;;;;4.57;3.65;;;;;;;;;;5041843;28;20056;-83
2023/12/12 12:30:23;;;;;;;4.13;3.10;;;;;;;;;;5047209;28;20044;-83
2023/12/12 12:33:01;;;;;;;10.73;4.07;;;;;;;;;;5032567;28;20067;-83
2023/12/12 12:35:28;;;;;;;6.20;3.58;;;;;;;;;;5053923;28;20041;-83
2023/12/12 12:37:56;;;;;;;5.88;3.05;;;;;;;;;;5033849;28;20505;-83
2023/12/12 12:40:33;;;;;;;6.72;4.40;;;;;;;;;;5026658;28;20049;-83
2023/12/12 12:43:13;;;;;;;8.43;3.58;;;;;;;;;;5027550;28;20096;-81
2023/12/12 12:45:40;;;;;;;6.57;4.28;;;;;;;;;;5033463;28;20499;-81
2023/12/12 12:48:10;;;;;;;5.57;3.80;;;;;;;;;;5052423;28;20045;-81
2023/12/12 12:50:40;;;;;;;9.75;5.57;;;;;;;;;;5035269;28;20049;-83
2023/12/12 12:53:07;;;;;;;14.05;8.35;;;;;;;;;;5036416;28;20690;-81
2023/12/12 12:55:38;;;;;;;8.05;5.05;;;;;;;;;;5033475;28;20411;-81
2023/12/12 12:58:09;;;;;;;6.05;4.03;;;;;;;;;;5020657;28;20546;-81
2023/12/12 13:00:37;;;;;;;6.63;3.53;;;;;;;;;;5046044;22;20041;-81
2023/12/12 13:03:04;;;;;;;5.75;3.80;;;;;;;;;;5024492;28;20053;-81
2023/12/12 13:05:31;;;;;;;5.30;3.92;;;;;;;;;;5056704;28;20045;-81
2023/12/12 13:07:59;;;;;;;6.18;4.53;;;;;;;;;;5075753;28;20048;-81
2023/12/12 13:10:26;;;;;;;6.43;4.93;;;;;;;;;;5057300;28;20048;-81
2023/12/12 13:12:56;;;;;;;6.05;4.82;;;;;;;;;;5039493;28;20052;-81
2023/12/12 13:15:26;;;;;;;3.80;3.20;;;;;;;;;;5031346;28;20059;-81
2023/12/12 13:17:54;;;;;;;6.90;4.18;;;;;;;;;;5061350;28;20056;-81
2023/12/12 13:20:21;;;;;;;6.63;4.35;;;;;;;;;;5067272;28;20053;-81
2023/12/12 13:22:48;;;;;;;5.07;3.40;;;;;;;;;;5033307;28;20063;-81
2023/12/12 13:25:15;;;;;;;3.47;3.17;;;;;;;;;;5027150;28;20049;-81
2023/12/12 13:27:45;;;;;;;5.75;3.58;;;;;;;;;;5027688;28;20052;-81
2023/12/12 13:30:15;;;;;;;5.78;3.20;;;;;;;;;;5050803;28;20069;-81
2023/12/12 13:32:44;;;;;;;4.38;3.67;;;;;;;;;;5042689;28;20065;-81
2023/12/12 13:35:14;;;;;;;7.88;3.83;;;;;;;;;;5042989;28;20044;-81
2023/12/12 13:37:44;;;;;;;5.33;4.47;;;;;;;;;;5060704;28;20053;-81
2023/12/12 13:40:11;;;;;;;5.05;3.92;;;;;;;;;;5035948;28;20045;-81
2023/12/12 13:42:41;;;;;;;6.10;3.70;;;;;;;;;;5068420;28;20045;-81
2023/12/12 13:45:11;;;;;;;5.85;3.75;;;;;;;;;;5044322;28;20057;-81
2023/12/12 13:47:39;;;;;;;3.90;2.92;;;;;;;;;;5037555;28;20037;-80
2023/12/12 13:50:08;;;;;;;4.60;3.47;;;;;;;;;;5025960;28;20060;-81
2023/12/12 13:52:36;;;;;;;7.40;3.83;;;;;;;;;;5044723;23;20041;-79
2023/12/12 13:55:06;;;;;;;4.78;3.10;;;;;;;;;;5029982;28;20056;-79
2023/12/12 13:57:33;;;;;;;3.33;3.03;;;;;;;;;;5021022;28;20057;-79
2023/12/12 14:00:00;;;;;;;6.65;4.00;;;;;;;;;;5019776;28;20056;-79
2023/12/12 14:02:28;;;;;;;7.07;3.63;;;;;;;;;;4999066;28;20045;-78
2023/12/12 14:04:55;;;;;;;5.70;3.53;;;;;;;;;;4999804;28;20057;-78
2023/12/12 14:07:27;;;;;;;4.68;4.18;;;;;;;;;;5034907;28;20049;-79
2023/12/12 14:09:56;;;;;;;4.25;3.83;;;;;;;;;;5003139;28;20057;-79
2023/12/12 14:12:26;;;;;;;6.40;3.72;;;;;;;;;;5035225;28;20053;-79
2023/12/12 14:14:53;;;;;;;6.22;3.70;;;;;;;;;;5015485;28;20502;-78
2023/12/12 14:17:22;;;;;;;4.68;4.25;;;;;;;;;;5011243;28;20049;-78
2023/12/12 14:19:50;;;;;;;4.40;3.13;;;;;;;;;;5031597;28;20583;-78
2023/12/12 14:22:19;;;;;;;4.28;3.58;;;;;;;;;;5031837;28;20049;-78
2023/12/12 14:24:49;;;;;;;4.35;2.95;;;;;;;;;;5033862;28;20056;-79
2023/12/12 14:27:16;;;;;;;4.75;4.03;;;;;;;;;;4997130;28;20041;-79
2023/12/12 14:29:46;;;;;;;4.03;3.50;;;;;;;;;;4994580;28;20060;-79
2023/12/12 14:32:16;;;;;;;6.68;4.35;;;;;;;;;;5014635;28;20522;-79
2023/12/12 14:34:44;;;;;;;4.32;3.92;;;;;;;;;;4987885;28;20064;-79
2023/12/12 14:37:13;;;;;;;7.82;4.60;;;;;;;;;;5000138;28;20061;-79
2023/12/12 14:39:41;;;;;;;4.57;3.25;;;;;;;;;;5016493;28;20373;-79
2023/12/12 14:42:12;;;;;;;5.70;4.30;;;;;;;;;;5015488;28;20049;-79
2023/12/12 14:44:41;;;;;;;6.28;4.10;;;;;;;;;;5015694;28;20053;-79
2023/12/12 14:47:09;;;;;;;6.68;5.07;;;;;;;;;;5023077;28;20416;-78
2023/12/12 14:49:37;;;;;;;8.02;5.10;;;;;;;;;;4996010;28;20045;-79
2023/12/12 14:52:07;;;;;;;5.05;4.00;;;;;;;;;;4997457;28;20050;-79